PWSweather.com
Personal Weather Stations
Station Observations
KOHAVON11
Long Road Station, Avon, OH 44011

Long Road StationAvon, OH 44011

Lat: 41.437, Lon: -82.0477

Elevation: 686

Station Type: Davis Vantage Pro2

http://www.avon-weather.com

Latest ConditionsUpdated 2:48:51 PM EST Sunday, Nov 19, 2017
Currently Today's Max Today's Min Today's Average
Temperature 37.6°F3.1°C 40.1°F4.5°C 37.2°F2.9°C 38.5°F3.6°C
Dew Point 27.1°F-2.7°C 35.5°F1.9°C 26.9°F-2.8°C 30.1°F-1.1°C
Winds 8.0 mph WNW12.9 kmh WNW 22.0 mph WNW35.4 kmh WNW - 8.9 mph 14.3 kmh
Wind Gusts 26.0 mph41.8 kmh 31.0 mph49.9 kmh - -
Humidity 66% 89% 62% 72%
Pressure 29.86 in1011.2 mb 29.86 in1011.2 mb 29.43 in996.6 mb -
Precipitation - 0.02 in0.5 mm - -
Hour Temp Dew Point Humidity Winds Wind Gusts Pressure Precip Precip Rate Daily Precip Total
02:48 PM 37.6°F3.1°C 27.1°F-2.7°C 66% 8.0 mph WNW12.9 kmh WNW 26.0 mph41.8 kmh 29.86 in1011.2 mb 0.00 in0.0 mm 0.00 in0.0 mm 0.02 in0.5 mm
02:43 PM 37.6°F3.1°C 27.1°F-2.7°C 66% 10.0 mph SW16.1 kmh SW 26.0 mph41.8 kmh 29.86 in1011.2 mb 0.00 in0.0 mm 0.00 in0.0 mm 0.02 in0.5 mm
02:38 PM 37.6°F3.1°C 27.1°F-2.7°C 66% 10.0 mph W16.1 kmh W 26.0 mph41.8 kmh 29.86 in1011.2 mb 0.00 in0.0 mm 0.00 in0.0 mm 0.02 in0.5 mm
02:33 PM 37.6°F3.1°C 27.5°F-2.5°C 67% 13.0 mph W20.9 kmh W 24.0 mph38.6 kmh 29.86 in1011.2 mb 0.00 in0.0 mm 0.00 in0.0 mm 0.02 in0.5 mm
02:28 PM 37.5°F3.1°C 27.8°F-2.3°C 68% 15.0 mph WSW24.1 kmh WSW 24.0 mph38.6 kmh 29.86 in1011.2 mb 0.00 in0.0 mm 0.00 in0.0 mm 0.02 in0.5 mm
02:23 PM 37.4°F3.0°C 28.0°F-2.2°C 69% 8.0 mph WNW12.9 kmh WNW 24.0 mph38.6 kmh 29.85 in1010.8 mb 0.00 in0.0 mm 0.00 in0.0 mm 0.02 in0.5 mm
02:18 PM 37.3°F2.9°C 28.7°F-1.8°C 71% 11.0 mph WSW17.7 kmh WSW 24.0 mph38.6 kmh 29.86 in1011.2 mb 0.00 in0.0 mm 0.00 in0.0 mm 0.02 in0.5 mm
02:13 PM 37.2°F2.9°C 28.9°F-1.7°C 72% 13.0 mph NW20.9 kmh NW 22.0 mph35.4 kmh 29.85 in1010.8 mb 0.00 in0.0 mm 0.00 in0.0 mm 0.02 in0.5 mm
02:08 PM 37.3°F2.9°C 28.7°F-1.8°C 71% 9.0 mph WSW14.5 kmh WSW 22.0 mph35.4 kmh 29.85 in1010.8 mb 0.00 in0.0 mm 0.00 in0.0 mm 0.02 in0.5 mm
02:03 PM 37.8°F3.2°C 27.7°F-2.4°C 67% 18.0 mph W29.0 kmh W 22.0 mph35.4 kmh 29.85 in1010.8 mb 0.00 in0.0 mm 0.00 in0.0 mm 0.02 in0.5 mm
01:58 PM 38.2°F3.4°C 28.1°F-2.2°C 67% 9.0 mph WSW14.5 kmh WSW 18.0 mph29.0 kmh 29.85 in1010.8 mb 0.00 in0.0 mm 0.00 in0.0 mm 0.02 in0.5 mm
01:53 PM 38.2°F3.4°C 27.7°F-2.4°C 66% 5.0 mph W8.0 kmh W 19.0 mph30.6 kmh 29.84 in1010.5 mb 0.00 in0.0 mm 0.00 in0.0 mm 0.02 in0.5 mm
01:48 PM 38.2°F3.4°C 27.7°F-2.4°C 66% 8.0 mph W12.9 kmh W 19.0 mph30.6 kmh 29.84 in1010.5 mb 0.00 in0.0 mm 0.00 in0.0 mm 0.02 in0.5 mm
01:43 PM 38.2°F3.4°C 27.7°F-2.4°C 66% 9.0 mph WSW14.5 kmh WSW 19.0 mph30.6 kmh 29.84 in1010.5 mb 0.00 in0.0 mm 0.00 in0.0 mm 0.02 in0.5 mm
01:38 PM 38.3°F3.5°C 27.8°F-2.3°C 66% 10.0 mph WNW16.1 kmh WNW 19.0 mph30.6 kmh 29.84 in1010.5 mb 0.00 in0.0 mm 0.00 in0.0 mm 0.02 in0.5 mm
01:33 PM 38.2°F3.4°C 27.7°F-2.4°C 66% 7.0 mph W11.3 kmh W 17.0 mph27.4 kmh 29.84 in1010.5 mb 0.00 in0.0 mm 0.00 in0.0 mm 0.02 in0.5 mm
01:28 PM 38.2°F3.4°C 27.7°F-2.4°C 66% 11.0 mph WNW17.7 kmh WNW 17.0 mph27.4 kmh 29.84 in1010.5 mb 0.00 in0.0 mm 0.00 in0.0 mm 0.02 in0.5 mm
01:23 PM 38.2°F3.4°C 27.7°F-2.4°C 66% 5.0 mph W8.0 kmh W 17.0 mph27.4 kmh 29.84 in1010.5 mb 0.00 in0.0 mm 0.00 in0.0 mm 0.02 in0.5 mm
01:18 PM 38.2°F3.4°C 27.3°F-2.6°C 65% 5.0 mph W8.0 kmh W 17.0 mph27.4 kmh 29.84 in1010.5 mb 0.00 in0.0 mm 0.00 in0.0 mm 0.02 in0.5 mm
01:13 PM 38.3°F3.5°C 27.8°F-2.3°C 66% 9.0 mph WNW14.5 kmh WNW 16.0 mph25.7 kmh 29.84 in1010.5 mb 0.00 in0.0 mm 0.00 in0.0 mm 0.02 in0.5 mm
01:08 PM 38.4°F3.6°C 27.9°F-2.3°C 66% 4.0 mph W6.4 kmh W 16.0 mph25.7 kmh 29.84 in1010.5 mb 0.00 in0.0 mm 0.00 in0.0 mm 0.02 in0.5 mm
01:03 PM 38.5°F3.6°C 28.0°F-2.2°C 66% 5.0 mph W8.0 kmh W 16.0 mph25.7 kmh 29.84 in1010.5 mb 0.00 in0.0 mm 0.00 in0.0 mm 0.02 in0.5 mm
12:58 PM 38.6°F3.7°C 28.1°F-2.2°C 66% 5.0 mph NW8.0 kmh NW 15.0 mph24.1 kmh 29.84 in1010.5 mb 0.00 in0.0 mm 0.00 in0.0 mm 0.02 in0.5 mm
12:53 PM 38.5°F3.6°C 28.0°F-2.2°C 66% 5.0 mph WNW8.0 kmh WNW 21.0 mph33.8 kmh 29.84 in1010.5 mb 0.00 in0.0 mm 0.00 in0.0 mm 0.02 in0.5 mm
12:48 PM 38.5°F3.6°C 28.0°F-2.2°C 66% 3.0 mph W4.8 kmh W 21.0 mph33.8 kmh 29.84 in1010.5 mb 0.00 in0.0 mm 0.00 in0.0 mm 0.02 in0.5 mm
12:43 PM 38.3°F3.5°C 28.2°F-2.1°C 67% 7.0 mph WSW11.3 kmh WSW 21.0 mph33.8 kmh 29.84 in1010.5 mb 0.00 in0.0 mm 0.00 in0.0 mm 0.02 in0.5 mm
12:38 PM 38.3°F3.5°C 28.5°F-1.9°C 68% 13.0 mph W20.9 kmh W 21.0 mph33.8 kmh 29.84 in1010.5 mb 0.00 in0.0 mm 0.00 in0.0 mm 0.02 in0.5 mm
12:33 PM 38.2°F3.4°C 28.4°F-2.0°C 68% 5.0 mph W8.0 kmh W 15.0 mph24.1 kmh 29.84 in1010.5 mb 0.00 in0.0 mm 0.00 in0.0 mm 0.02 in0.5 mm
12:28 PM 38.2°F3.4°C 28.8°F-1.8°C 69% 13.0 mph WSW20.9 kmh WSW 17.0 mph27.4 kmh 29.84 in1010.5 mb 0.00 in0.0 mm 0.00 in0.0 mm 0.02 in0.5 mm
12:23 PM 38.2°F3.4°C 28.8°F-1.8°C 69% 10.0 mph WSW16.1 kmh WSW 17.0 mph27.4 kmh 29.84 in1010.5 mb 0.00 in0.0 mm 0.00 in0.0 mm 0.02 in0.5 mm
12:18 PM 38.1°F3.4°C 28.7°F-1.8°C 69% 6.0 mph W9.7 kmh W 17.0 mph27.4 kmh 29.84 in1010.5 mb 0.00 in0.0 mm 0.00 in0.0 mm 0.02 in0.5 mm
12:13 PM 38.0°F3.3°C 28.6°F-1.9°C 69% 5.0 mph WNW8.0 kmh WNW 17.0 mph27.4 kmh 29.85 in1010.8 mb 0.00 in0.0 mm 0.00 in0.0 mm 0.02 in0.5 mm
12:08 PM 38.0°F3.3°C 29.0°F-1.7°C 70% 5.0 mph W8.0 kmh W 14.0 mph22.5 kmh 29.85 in1010.8 mb 0.00 in0.0 mm 0.00 in0.0 mm 0.02 in0.5 mm
12:03 PM 37.9°F3.3°C 28.9°F-1.7°C 70% 6.0 mph W9.7 kmh W 14.0 mph22.5 kmh 29.85 in1010.8 mb 0.00 in0.0 mm 0.00 in0.0 mm 0.02 in0.5 mm
11:58 AM 37.8°F3.2°C 28.8°F-1.8°C 70% 9.0 mph W14.5 kmh W 19.0 mph30.6 kmh 29.85 in1010.8 mb 0.00 in0.0 mm 0.00 in0.0 mm 0.02 in0.5 mm
11:53 AM 37.9°F3.3°C 29.2°F-1.6°C 71% 7.0 mph W11.3 kmh W 19.0 mph30.6 kmh 29.85 in1010.8 mb 0.00 in0.0 mm 0.00 in0.0 mm 0.02 in0.5 mm
11:48 AM 38.0°F3.3°C 29.7°F-1.3°C 72% 14.0 mph WNW22.5 kmh WNW 19.0 mph30.6 kmh 29.85 in1010.8 mb 0.00 in0.0 mm 0.00 in0.0 mm 0.02 in0.5 mm
11:43 AM 38.0°F3.3°C 28.6°F-1.9°C 69% 8.0 mph WNW12.9 kmh WNW 19.0 mph30.6 kmh 29.85 in1010.8 mb 0.00 in0.0 mm 0.00 in0.0 mm 0.02 in0.5 mm
11:38 AM 38.1°F3.4°C 28.3°F-2.1°C 68% 4.0 mph W6.4 kmh W 15.0 mph24.1 kmh 29.85 in1010.8 mb 0.00 in0.0 mm 0.00 in0.0 mm 0.02 in0.5 mm
11:33 AM 38.3°F3.5°C 28.5°F-1.9°C 68% 9.0 mph W14.5 kmh W 18.0 mph29.0 kmh 29.85 in1010.8 mb 0.00 in0.0 mm 0.00 in0.0 mm 0.02 in0.5 mm
11:28 AM 38.5°F3.6°C 28.3°F-2.1°C 67% 9.0 mph W14.5 kmh W 18.0 mph29.0 kmh 29.85 in1010.8 mb 0.00 in0.0 mm 0.00 in0.0 mm 0.02 in0.5 mm
11:23 AM 38.6°F3.7°C 28.1°F-2.2°C 66% 8.0 mph W12.9 kmh W 18.0 mph29.0 kmh 29.85 in1010.8 mb 0.00 in0.0 mm 0.00 in0.0 mm 0.02 in0.5 mm
11:18 AM 38.6°F3.7°C 28.1°F-2.2°C 66% 8.0 mph WNW12.9 kmh WNW 18.0 mph29.0 kmh 29.85 in1010.8 mb 0.00 in0.0 mm 0.00 in0.0 mm 0.02 in0.5 mm
11:13 AM 38.6°F3.7°C 28.1°F-2.2°C 66% 8.0 mph SW12.9 kmh SW 16.0 mph25.7 kmh 29.85 in1010.8 mb 0.00 in0.0 mm 0.00 in0.0 mm 0.02 in0.5 mm
11:08 AM 38.6°F3.7°C 28.1°F-2.2°C 66% 6.0 mph WNW9.7 kmh WNW 20.0 mph32.2 kmh 29.85 in1010.8 mb 0.00 in0.0 mm 0.00 in0.0 mm 0.02 in0.5 mm
11:03 AM 38.7°F3.7°C 28.2°F-2.1°C 66% 6.0 mph WSW9.7 kmh WSW 20.0 mph32.2 kmh 29.85 in1010.8 mb 0.00 in0.0 mm 0.00 in0.0 mm 0.02 in0.5 mm
10:58 AM 38.7°F3.7°C 28.2°F-2.1°C 66% 7.0 mph W11.3 kmh W 20.0 mph32.2 kmh 29.85 in1010.8 mb 0.00 in0.0 mm 0.00 in0.0 mm 0.02 in0.5 mm
10:53 AM 38.8°F3.8°C 27.9°F-2.3°C 65% 4.0 mph W6.4 kmh W 20.0 mph32.2 kmh 29.85 in1010.8 mb 0.00 in0.0 mm 0.00 in0.0 mm 0.02 in0.5 mm
10:48 AM 38.9°F3.8°C 28.0°F-2.2°C 65% 8.0 mph NW12.9 kmh NW 18.0 mph29.0 kmh 29.85 in1010.8 mb 0.00 in0.0 mm 0.00 in0.0 mm 0.02 in0.5 mm
10:43 AM 38.9°F3.8°C 28.0°F-2.2°C 65% 4.0 mph W6.4 kmh W 18.0 mph29.0 kmh 29.84 in1010.5 mb 0.00 in0.0 mm 0.00 in0.0 mm 0.02 in0.5 mm
10:38 AM 38.9°F3.8°C 27.6°F-2.4°C 64% 6.0 mph WSW9.7 kmh WSW 18.0 mph29.0 kmh 29.84 in1010.5 mb 0.00 in0.0 mm 0.00 in0.0 mm 0.02 in0.5 mm
10:33 AM 39.0°F3.9°C 27.3°F-2.6°C 63% 8.0 mph NW12.9 kmh NW 18.0 mph29.0 kmh 29.84 in1010.5 mb 0.00 in0.0 mm 0.00 in0.0 mm 0.02 in0.5 mm
10:28 AM 39.1°F3.9°C 27.4°F-2.6°C 63% 8.0 mph W12.9 kmh W 14.0 mph22.5 kmh 29.84 in1010.5 mb 0.00 in0.0 mm 0.00 in0.0 mm 0.02 in0.5 mm
10:23 AM 39.0°F3.9°C 26.9°F-2.8°C 62% 6.0 mph NW9.7 kmh NW 15.0 mph24.1 kmh 29.84 in1010.5 mb 0.00 in0.0 mm 0.00 in0.0 mm 0.02 in0.5 mm
10:18 AM 38.9°F3.8°C 28.0°F-2.2°C 65% 6.0 mph W9.7 kmh W 15.0 mph24.1 kmh 29.83 in1010.2 mb 0.00 in0.0 mm 0.00 in0.0 mm 0.02 in0.5 mm
10:13 AM 38.7°F3.7°C 28.5°F-1.9°C 67% 5.0 mph NW8.0 kmh NW 20.0 mph32.2 kmh 29.83 in1010.2 mb 0.00 in0.0 mm 0.00 in0.0 mm 0.02 in0.5 mm
10:08 AM 38.6°F3.7°C 28.4°F-2.0°C 67% 9.0 mph NW14.5 kmh NW 20.0 mph32.2 kmh 29.83 in1010.2 mb 0.00 in0.0 mm 0.00 in0.0 mm 0.02 in0.5 mm
10:03 AM 38.5°F3.6°C 28.0°F-2.2°C 66% 6.0 mph NW9.7 kmh NW 20.0 mph32.2 kmh 29.83 in1010.2 mb 0.00 in0.0 mm 0.00 in0.0 mm 0.02 in0.5 mm
09:58 AM 38.6°F3.7°C 28.1°F-2.2°C 66% 8.0 mph NW12.9 kmh NW 20.0 mph32.2 kmh 29.83 in1010.2 mb 0.00 in0.0 mm 0.00 in0.0 mm 0.02 in0.5 mm
09:53 AM 38.2°F3.4°C 28.1°F-2.2°C 67% 8.0 mph WNW12.9 kmh WNW 17.0 mph27.4 kmh 29.83 in1010.2 mb 0.00 in0.0 mm 0.00 in0.0 mm 0.02 in0.5 mm
09:48 AM 37.5°F3.1°C 27.0°F-2.8°C 66% 8.0 mph W12.9 kmh W 17.0 mph27.4 kmh 29.82 in1009.8 mb 0.00 in0.0 mm 0.00 in0.0 mm 0.02 in0.5 mm
09:43 AM 37.4°F3.0°C 27.7°F-2.4°C 68% 11.0 mph WNW17.7 kmh WNW 13.0 mph20.9 kmh 29.82 in1009.8 mb 0.00 in0.0 mm 0.00 in0.0 mm 0.02 in0.5 mm
09:38 AM 37.5°F3.1°C 28.5°F-1.9°C 70% 10.0 mph WSW16.1 kmh WSW 13.0 mph20.9 kmh 29.83 in1010.2 mb 0.00 in0.0 mm 0.00 in0.0 mm 0.02 in0.5 mm
09:33 AM 37.5°F3.1°C 28.5°F-1.9°C 70% 4.0 mph NW6.4 kmh NW 16.0 mph25.7 kmh 29.82 in1009.8 mb 0.00 in0.0 mm 0.00 in0.0 mm 0.02 in0.5 mm
09:28 AM 37.6°F3.1°C 28.2°F-2.1°C 69% 8.0 mph WNW12.9 kmh WNW 16.0 mph25.7 kmh 29.82 in1009.8 mb 0.00 in0.0 mm 0.00 in0.0 mm 0.02 in0.5 mm
09:23 AM 37.7°F3.2°C 28.7°F-1.8°C 70% 5.0 mph W8.0 kmh W 16.0 mph25.7 kmh 29.82 in1009.8 mb 0.00 in0.0 mm 0.00 in0.0 mm 0.02 in0.5 mm
09:18 AM 37.7°F3.2°C 28.7°F-1.8°C 70% 7.0 mph W11.3 kmh W 16.0 mph25.7 kmh 29.82 in1009.8 mb 0.00 in0.0 mm 0.00 in0.0 mm 0.02 in0.5 mm
09:13 AM 37.7°F3.2°C 28.0°F-2.2°C 68% 5.0 mph WNW8.0 kmh WNW 14.0 mph22.5 kmh 29.82 in1009.8 mb 0.00 in0.0 mm 0.00 in0.0 mm 0.02 in0.5 mm
09:08 AM 37.6°F3.1°C 27.9°F-2.3°C 68% 4.0 mph WSW6.4 kmh WSW 14.0 mph22.5 kmh 29.81 in1009.5 mb 0.00 in0.0 mm 0.00 in0.0 mm 0.02 in0.5 mm
09:03 AM 37.6°F3.1°C 28.2°F-2.1°C 69% 6.0 mph WSW9.7 kmh WSW 12.0 mph19.3 kmh 29.81 in1009.5 mb 0.00 in0.0 mm 0.00 in0.0 mm 0.02 in0.5 mm
08:58 AM 37.6°F3.1°C 27.9°F-2.3°C 68% 4.0 mph NW6.4 kmh NW 16.0 mph25.7 kmh 29.81 in1009.5 mb 0.00 in0.0 mm 0.00 in0.0 mm 0.02 in0.5 mm
08:53 AM 37.5°F3.1°C 27.8°F-2.3°C 68% 4.0 mph NW6.4 kmh NW 16.0 mph25.7 kmh 29.81 in1009.5 mb 0.00 in0.0 mm 0.00 in0.0 mm 0.02 in0.5 mm
08:48 AM 37.5°F3.1°C 27.4°F-2.6°C 67% 7.0 mph WNW11.3 kmh WNW 16.0 mph25.7 kmh 29.81 in1009.5 mb 0.00 in0.0 mm 0.00 in0.0 mm 0.02 in0.5 mm
08:43 AM 37.5°F3.1°C 27.4°F-2.6°C 67% 5.0 mph NW8.0 kmh NW 16.0 mph25.7 kmh 29.81 in1009.5 mb 0.00 in0.0 mm 0.00 in0.0 mm 0.02 in0.5 mm
08:38 AM 37.4°F3.0°C 27.3°F-2.6°C 67% 4.0 mph WNW6.4 kmh WNW 17.0 mph27.4 kmh 29.81 in1009.5 mb 0.00 in0.0 mm 0.00 in0.0 mm 0.02 in0.5 mm
08:33 AM 37.4°F3.0°C 26.9°F-2.8°C 66% 7.0 mph NW11.3 kmh NW 17.0 mph27.4 kmh 29.80 in1009.1 mb 0.00 in0.0 mm 0.00 in0.0 mm 0.02 in0.5 mm
08:28 AM 37.4°F3.0°C 26.9°F-2.8°C 66% 6.0 mph W9.7 kmh W 20.0 mph32.2 kmh 29.80 in1009.1 mb 0.00 in0.0 mm 0.00 in0.0 mm 0.02 in0.5 mm
08:23 AM 37.5°F3.1°C 27.4°F-2.6°C 67% 5.0 mph WNW8.0 kmh WNW 20.0 mph32.2 kmh 29.81 in1009.5 mb 0.00 in0.0 mm 0.00 in0.0 mm 0.02 in0.5 mm
08:18 AM 37.6°F3.1°C 27.5°F-2.5°C 67% 5.0 mph WNW8.0 kmh WNW 20.0 mph32.2 kmh 29.80 in1009.1 mb 0.00 in0.0 mm 0.00 in0.0 mm 0.02 in0.5 mm
08:13 AM 37.7°F3.2°C 28.0°F-2.2°C 68% 7.0 mph W11.3 kmh W 20.0 mph32.2 kmh 29.80 in1009.1 mb 0.00 in0.0 mm 0.00 in0.0 mm 0.02 in0.5 mm
08:08 AM 37.8°F3.2°C 28.4°F-2.0°C 69% 6.0 mph NW9.7 kmh NW 20.0 mph32.2 kmh 29.80 in1009.1 mb 0.00 in0.0 mm 0.00 in0.0 mm 0.02 in0.5 mm
08:03 AM 37.8°F3.2°C 28.4°F-2.0°C 69% 5.0 mph NW8.0 kmh NW 20.0 mph32.2 kmh 29.80 in1009.1 mb 0.00 in0.0 mm 0.00 in0.0 mm 0.02 in0.5 mm
07:58 AM 37.8°F3.2°C 28.4°F-2.0°C 69% 9.0 mph NW14.5 kmh NW 20.0 mph32.2 kmh 29.79 in1008.8 mb 0.00 in0.0 mm 0.00 in0.0 mm 0.02 in0.5 mm
07:53 AM 37.7°F3.2°C 28.7°F-1.8°C 70% 13.0 mph NW20.9 kmh NW 19.0 mph30.6 kmh 29.79 in1008.8 mb 0.00 in0.0 mm 0.00 in0.0 mm 0.02 in0.5 mm
07:48 AM 37.5°F3.1°C 29.2°F-1.6°C 72% 12.0 mph WNW19.3 kmh WNW 19.0 mph30.6 kmh 29.79 in1008.8 mb 0.00 in0.0 mm 0.00 in0.0 mm 0.02 in0.5 mm
07:43 AM 37.4°F3.0°C 29.8°F-1.2°C 74% 7.0 mph NW11.3 kmh NW 14.0 mph22.5 kmh 29.79 in1008.8 mb 0.00 in0.0 mm 0.00 in0.0 mm 0.02 in0.5 mm
07:38 AM 37.5°F3.1°C 30.2°F-1.0°C 75% 8.0 mph WNW12.9 kmh WNW 19.0 mph30.6 kmh 29.78 in1008.5 mb 0.00 in0.0 mm 0.00 in0.0 mm 0.02 in0.5 mm
07:33 AM 37.8°F3.2°C 30.2°F-1.0°C 74% 8.0 mph W12.9 kmh W 19.0 mph30.6 kmh 29.78 in1008.5 mb 0.00 in0.0 mm 0.00 in0.0 mm 0.02 in0.5 mm
07:28 AM 38.2°F3.4°C 29.9°F-1.2°C 72% 6.0 mph W9.7 kmh W 20.0 mph32.2 kmh 29.78 in1008.5 mb 0.00 in0.0 mm 0.00 in0.0 mm 0.02 in0.5 mm
07:23 AM 38.7°F3.7°C 30.0°F-1.1°C 71% 12.0 mph W19.3 kmh W 20.0 mph32.2 kmh 29.77 in1008.1 mb 0.00 in0.0 mm 0.00 in0.0 mm 0.02 in0.5 mm
07:18 AM 39.0°F3.9°C 29.9°F-1.2°C 70% 18.0 mph WNW29.0 kmh WNW 20.0 mph32.2 kmh 29.77 in1008.1 mb 0.00 in0.0 mm 0.00 in0.0 mm 0.02 in0.5 mm
07:13 AM 39.0°F3.9°C 29.2°F-1.6°C 68% 15.0 mph WSW24.1 kmh WSW 20.0 mph32.2 kmh 29.76 in1007.8 mb 0.00 in0.0 mm 0.00 in0.0 mm 0.02 in0.5 mm
07:08 AM 38.9°F3.8°C 29.1°F-1.6°C 68% 10.0 mph W16.1 kmh W 17.0 mph27.4 kmh 29.76 in1007.8 mb 0.00 in0.0 mm 0.00 in0.0 mm 0.02 in0.5 mm
07:03 AM 38.8°F3.8°C 29.0°F-1.7°C 68% 17.0 mph W27.4 kmh W 17.0 mph27.4 kmh 29.76 in1007.8 mb 0.00 in0.0 mm 0.00 in0.0 mm 0.02 in0.5 mm
06:58 AM 38.8°F3.8°C 28.6°F-1.9°C 67% 8.0 mph W12.9 kmh W 14.0 mph22.5 kmh 29.76 in1007.8 mb 0.00 in0.0 mm 0.00 in0.0 mm 0.02 in0.5 mm
06:53 AM 38.7°F3.7°C 28.2°F-2.1°C 66% 3.0 mph NW4.8 kmh NW 14.0 mph22.5 kmh 29.76 in1007.8 mb 0.00 in0.0 mm 0.00 in0.0 mm 0.02 in0.5 mm
06:48 AM 38.8°F3.8°C 28.3°F-2.1°C 66% 9.0 mph W14.5 kmh W 20.0 mph32.2 kmh 29.75 in1007.5 mb 0.00 in0.0 mm 0.00 in0.0 mm 0.02 in0.5 mm
06:43 AM 38.7°F3.7°C 27.8°F-2.3°C 65% 8.0 mph NW12.9 kmh NW 20.0 mph32.2 kmh 29.75 in1007.5 mb 0.00 in0.0 mm 0.00 in0.0 mm 0.02 in0.5 mm
06:38 AM 38.7°F3.7°C 27.8°F-2.3°C 65% 6.0 mph W9.7 kmh W 20.0 mph32.2 kmh 29.75 in1007.5 mb 0.00 in0.0 mm 0.00 in0.0 mm 0.02 in0.5 mm
06:33 AM 38.7°F3.7°C 28.2°F-2.1°C 66% 7.0 mph NW11.3 kmh NW 20.0 mph32.2 kmh 29.75 in1007.5 mb 0.00 in0.0 mm 0.00 in0.0 mm 0.02 in0.5 mm
06:28 AM 38.7°F3.7°C 28.5°F-1.9°C 67% 7.0 mph NW11.3 kmh NW 16.0 mph25.7 kmh 29.75 in1007.5 mb 0.00 in0.0 mm 0.00 in0.0 mm 0.02 in0.5 mm
06:23 AM 38.7°F3.7°C 28.5°F-1.9°C 67% 5.0 mph WNW8.0 kmh WNW 16.0 mph25.7 kmh 29.75 in1007.5 mb 0.00 in0.0 mm 0.00 in0.0 mm 0.02 in0.5 mm
06:18 AM 38.7°F3.7°C 28.5°F-1.9°C 67% 13.0 mph W20.9 kmh W 16.0 mph25.7 kmh 29.74 in1007.1 mb 0.00 in0.0 mm 0.00 in0.0 mm 0.02 in0.5 mm
06:13 AM 38.7°F3.7°C 28.5°F-1.9°C 67% 10.0 mph WNW16.1 kmh WNW 16.0 mph25.7 kmh 29.74 in1007.1 mb 0.00 in0.0 mm 0.00 in0.0 mm 0.02 in0.5 mm
06:08 AM 38.6°F3.7°C 28.8°F-1.8°C 68% 8.0 mph WNW12.9 kmh WNW 16.0 mph25.7 kmh 29.73 in1006.8 mb 0.00 in0.0 mm 0.00 in0.0 mm 0.02 in0.5 mm
06:03 AM 38.5°F3.6°C 29.1°F-1.6°C 69% 4.0 mph NW6.4 kmh NW 19.0 mph30.6 kmh 29.73 in1006.8 mb 0.00 in0.0 mm 0.00 in0.0 mm 0.02 in0.5 mm
05:58 AM 38.4°F3.6°C 29.0°F-1.7°C 69% 7.0 mph NW11.3 kmh NW 19.0 mph30.6 kmh 29.73 in1006.8 mb 0.00 in0.0 mm 0.00 in0.0 mm 0.02 in0.5 mm
05:53 AM 38.2°F3.4°C 29.9°F-1.2°C 72% 12.0 mph WSW19.3 kmh WSW 21.0 mph33.8 kmh 29.73 in1006.8 mb 0.00 in0.0 mm 0.00 in0.0 mm 0.02 in0.5 mm
05:48 AM 38.1°F3.4°C 30.8°F-0.7°C 75% 7.0 mph WSW11.3 kmh WSW 21.0 mph33.8 kmh 29.73 in1006.8 mb 0.00 in0.0 mm 0.00 in0.0 mm 0.02 in0.5 mm
05:43 AM 38.2°F3.4°C 31.2°F-0.4°C 76% 11.0 mph WNW17.7 kmh WNW 21.0 mph33.8 kmh 29.72 in1006.4 mb 0.00 in0.0 mm 0.00 in0.0 mm 0.02 in0.5 mm
05:38 AM 38.3°F3.5°C 31.7°F-0.2°C 77% 14.0 mph WNW22.5 kmh WNW 21.0 mph33.8 kmh 29.72 in1006.4 mb 0.00 in0.0 mm 0.00 in0.0 mm 0.02 in0.5 mm
05:33 AM 38.4°F3.6°C 31.8°F-0.1°C 77% 9.0 mph NW14.5 kmh NW 16.0 mph25.7 kmh 29.72 in1006.4 mb 0.00 in0.0 mm 0.00 in0.0 mm 0.02 in0.5 mm
05:28 AM 38.6°F3.7°C 31.6°F-0.2°C 76% 5.0 mph NW8.0 kmh NW 16.0 mph25.7 kmh 29.71 in1006.1 mb 0.00 in0.0 mm 0.00 in0.0 mm 0.02 in0.5 mm
05:23 AM 38.9°F3.8°C 30.9°F-0.6°C 73% 12.0 mph 19.3 kmh 16.0 mph25.7 kmh 29.71 in1006.1 mb 0.00 in0.0 mm 0.00 in0.0 mm 0.02 in0.5 mm
05:18 AM 39.1°F3.9°C 30.4°F-0.9°C 71% 7.0 mph WNW11.3 kmh WNW 15.0 mph24.1 kmh 29.71 in1006.1 mb 0.00 in0.0 mm 0.00 in0.0 mm 0.02 in0.5 mm
05:13 AM 39.2°F4.0°C 29.8°F-1.2°C 69% 10.0 mph NW16.1 kmh NW 15.0 mph24.1 kmh 29.71 in1006.1 mb 0.00 in0.0 mm 0.00 in0.0 mm 0.02 in0.5 mm
05:08 AM 39.1°F3.9°C 28.9°F-1.7°C 67% 5.0 mph NW8.0 kmh NW 14.0 mph22.5 kmh 29.70 in1005.8 mb 0.00 in0.0 mm 0.00 in0.0 mm 0.02 in0.5 mm
05:03 AM 39.1°F3.9°C 28.9°F-1.7°C 67% 8.0 mph WNW12.9 kmh WNW 15.0 mph24.1 kmh 29.70 in1005.8 mb 0.00 in0.0 mm 0.00 in0.0 mm 0.02 in0.5 mm
04:58 AM 39.1°F3.9°C 28.9°F-1.7°C 67% 4.0 mph N6.4 kmh N 15.0 mph24.1 kmh 29.70 in1005.8 mb 0.00 in0.0 mm 0.00 in0.0 mm 0.02 in0.5 mm
04:53 AM 39.1°F3.9°C 29.3°F-1.5°C 68% 8.0 mph WNW12.9 kmh WNW 16.0 mph25.7 kmh 29.70 in1005.8 mb 0.00 in0.0 mm 0.00 in0.0 mm 0.02 in0.5 mm
04:48 AM 39.1°F3.9°C 29.7°F-1.3°C 69% 7.0 mph W11.3 kmh W 16.0 mph25.7 kmh 29.69 in1005.4 mb 0.00 in0.0 mm 0.00 in0.0 mm 0.02 in0.5 mm
04:43 AM 39.1°F3.9°C 29.3°F-1.5°C 68% 7.0 mph NW11.3 kmh NW 17.0 mph27.4 kmh 29.69 in1005.4 mb 0.00 in0.0 mm 0.00 in0.0 mm 0.02 in0.5 mm
04:38 AM 39.1°F3.9°C 29.3°F-1.5°C 68% 8.0 mph NW12.9 kmh NW 17.0 mph27.4 kmh 29.68 in1005.1 mb 0.00 in0.0 mm 0.00 in0.0 mm 0.02 in0.5 mm
04:33 AM 39.2°F4.0°C 29.4°F-1.4°C 68% 7.0 mph WNW11.3 kmh WNW 18.0 mph29.0 kmh 29.68 in1005.1 mb 0.00 in0.0 mm 0.00 in0.0 mm 0.02 in0.5 mm
04:28 AM 39.3°F4.1°C 29.1°F-1.6°C 67% 10.0 mph NW16.1 kmh NW 18.0 mph29.0 kmh 29.68 in1005.1 mb 0.00 in0.0 mm 0.00 in0.0 mm 0.02 in0.5 mm
04:23 AM 39.4°F4.1°C 29.6°F-1.3°C 68% 12.0 mph WNW19.3 kmh WNW 22.0 mph35.4 kmh 29.68 in1005.1 mb 0.00 in0.0 mm 0.00 in0.0 mm 0.02 in0.5 mm
04:18 AM 39.5°F4.2°C 29.7°F-1.3°C 68% 11.0 mph NW17.7 kmh NW 22.0 mph35.4 kmh 29.68 in1005.1 mb 0.00 in0.0 mm 0.00 in0.0 mm 0.02 in0.5 mm
04:13 AM 39.6°F4.2°C 30.1°F-1.1°C 69% 12.0 mph W19.3 kmh W 22.0 mph35.4 kmh 29.67 in1004.7 mb 0.00 in0.0 mm 0.00 in0.0 mm 0.02 in0.5 mm
04:08 AM 39.7°F4.3°C 30.6°F-0.8°C 70% 12.0 mph NW19.3 kmh NW 22.0 mph35.4 kmh 29.67 in1004.7 mb 0.00 in0.0 mm 0.00 in0.0 mm 0.02 in0.5 mm
04:03 AM 39.8°F4.3°C 30.7°F-0.7°C 70% 12.0 mph WNW19.3 kmh WNW 21.0 mph33.8 kmh 29.67 in1004.7 mb 0.00 in0.0 mm 0.00 in0.0 mm 0.02 in0.5 mm
03:58 AM 39.8°F4.3°C 30.7°F-0.7°C 70% 14.0 mph W22.5 kmh W 22.0 mph35.4 kmh 29.66 in1004.4 mb 0.00 in0.0 mm 0.00 in0.0 mm 0.02 in0.5 mm
03:53 AM 39.9°F4.4°C 31.1°F-0.5°C 71% 8.0 mph NW12.9 kmh NW 22.0 mph35.4 kmh 29.66 in1004.4 mb 0.00 in0.0 mm 0.00 in0.0 mm 0.02 in0.5 mm
03:48 AM 39.9°F4.4°C 31.1°F-0.5°C 71% 13.0 mph WNW20.9 kmh WNW 22.0 mph35.4 kmh 29.65 in1004.1 mb 0.00 in0.0 mm 0.00 in0.0 mm 0.02 in0.5 mm
03:43 AM 39.9°F4.4°C 31.1°F-0.5°C 71% 9.0 mph NW14.5 kmh NW 22.0 mph35.4 kmh 29.65 in1004.1 mb 0.00 in0.0 mm 0.00 in0.0 mm 0.02 in0.5 mm
03:38 AM 40.0°F4.4°C 31.6°F-0.2°C 72% 15.0 mph NW24.1 kmh NW 19.0 mph30.6 kmh 29.65 in1004.1 mb 0.00 in0.0 mm 0.00 in0.0 mm 0.02 in0.5 mm
03:33 AM 40.0°F4.4°C 31.6°F-0.2°C 72% 11.0 mph WNW17.7 kmh WNW 25.0 mph40.2 kmh 29.64 in1003.7 mb 0.00 in0.0 mm 0.00 in0.0 mm 0.02 in0.5 mm
03:28 AM 40.1°F4.5°C 31.7°F-0.2°C 72% 10.0 mph NW16.1 kmh NW 25.0 mph40.2 kmh 29.64 in1003.7 mb 0.00 in0.0 mm 0.00 in0.0 mm 0.02 in0.5 mm
03:23 AM 40.1°F4.5°C 32.0°F0.0°C 73% 21.0 mph WNW33.8 kmh WNW 27.0 mph43.5 kmh 29.64 in1003.7 mb 0.00 in0.0 mm 0.00 in0.0 mm 0.02 in0.5 mm
03:18 AM 40.1°F4.5°C 32.4°F0.2°C 74% 14.0 mph WNW22.5 kmh WNW 27.0 mph43.5 kmh 29.63 in1003.4 mb 0.00 in0.0 mm 0.00 in0.0 mm 0.02 in0.5 mm
03:13 AM 40.1°F4.5°C 32.7°F0.4°C 75% 17.0 mph W27.4 kmh W 27.0 mph43.5 kmh 29.63 in1003.4 mb 0.00 in0.0 mm 0.00 in0.0 mm 0.02 in0.5 mm
03:08 AM 40.1°F4.5°C 33.1°F0.6°C 76% 9.0 mph WNW14.5 kmh WNW 27.0 mph43.5 kmh 29.62 in1003.0 mb 0.00 in0.0 mm 0.00 in0.0 mm 0.02 in0.5 mm
03:03 AM 40.0°F4.4°C 33.3°F0.7°C 77% 10.0 mph W16.1 kmh W 28.0 mph45.1 kmh 29.61 in1002.7 mb 0.00 in0.0 mm 0.00 in0.0 mm 0.02 in0.5 mm
02:58 AM 40.0°F4.4°C 33.3°F0.7°C 77% 14.0 mph WNW22.5 kmh WNW 28.0 mph45.1 kmh 29.61 in1002.7 mb 0.00 in0.0 mm 0.00 in0.0 mm 0.02 in0.5 mm
02:53 AM 39.9°F4.4°C 33.5°F0.8°C 78% 10.0 mph WNW16.1 kmh WNW 28.0 mph45.1 kmh 29.60 in1002.4 mb 0.00 in0.0 mm 0.00 in0.0 mm 0.02 in0.5 mm
02:48 AM 39.8°F4.3°C 33.8°F1.0°C 79% 12.0 mph WNW19.3 kmh WNW 28.0 mph45.1 kmh 29.60 in1002.4 mb 0.00 in0.0 mm 0.00 in0.0 mm 0.02 in0.5 mm
02:43 AM 39.8°F4.3°C 33.8°F1.0°C 79% 7.0 mph W11.3 kmh W 21.0 mph33.8 kmh 29.60 in1002.4 mb 0.00 in0.0 mm 0.00 in0.0 mm 0.02 in0.5 mm
02:38 AM 39.7°F4.3°C 33.7°F0.9°C 79% 12.0 mph NW19.3 kmh NW 21.0 mph33.8 kmh 29.59 in1002.0 mb 0.00 in0.0 mm 0.00 in0.0 mm 0.02 in0.5 mm
02:33 AM 39.6°F4.2°C 33.9°F1.1°C 80% 12.0 mph NW19.3 kmh NW 25.0 mph40.2 kmh 29.59 in1002.0 mb 0.00 in0.0 mm 0.00 in0.0 mm 0.02 in0.5 mm
02:28 AM 39.6°F4.2°C 34.2°F1.2°C 81% 7.0 mph NW11.3 kmh NW 25.0 mph40.2 kmh 29.58 in1001.7 mb 0.00 in0.0 mm 0.00 in0.0 mm 0.02 in0.5 mm
02:23 AM 39.5°F4.2°C 34.4°F1.3°C 82% 10.0 mph W16.1 kmh W 25.0 mph40.2 kmh 29.58 in1001.7 mb 0.00 in0.0 mm 0.00 in0.0 mm 0.02 in0.5 mm
02:18 AM 39.5°F4.2°C 34.4°F1.3°C 82% 9.0 mph NW14.5 kmh NW 25.0 mph40.2 kmh 29.57 in1001.4 mb 0.00 in0.0 mm 0.00 in0.0 mm 0.02 in0.5 mm
02:13 AM 39.5°F4.2°C 34.7°F1.5°C 83% 13.0 mph NW20.9 kmh NW 31.0 mph49.9 kmh 29.57 in1001.4 mb 0.00 in0.0 mm 0.00 in0.0 mm 0.02 in0.5 mm
02:08 AM 39.5°F4.2°C 34.7°F1.5°C 83% 16.0 mph WNW25.7 kmh WNW 31.0 mph49.9 kmh 29.57 in1001.4 mb 0.00 in0.0 mm 0.00 in0.0 mm 0.02 in0.5 mm
02:03 AM 39.4°F4.1°C 35.0°F1.7°C 84% 10.0 mph WNW16.1 kmh WNW 31.0 mph49.9 kmh 29.56 in1001.0 mb 0.00 in0.0 mm 0.00 in0.0 mm 0.02 in0.5 mm
01:58 AM 39.3°F4.1°C 34.9°F1.6°C 84% 9.0 mph NW14.5 kmh NW 31.0 mph49.9 kmh 29.55 in1000.7 mb 0.00 in0.0 mm 0.00 in0.0 mm 0.02 in0.5 mm
01:53 AM 39.3°F4.1°C 35.2°F1.8°C 85% 5.0 mph WSW8.0 kmh WSW 29.0 mph46.7 kmh 29.55 in1000.7 mb 0.00 in0.0 mm 0.00 in0.0 mm 0.02 in0.5 mm
01:48 AM 39.2°F4.0°C 35.1°F1.7°C 85% 13.0 mph W20.9 kmh W 29.0 mph46.7 kmh 29.54 in1000.3 mb 0.00 in0.0 mm 0.00 in0.0 mm 0.02 in0.5 mm
01:43 AM 39.1°F3.9°C 35.3°F1.8°C 86% 12.0 mph WNW19.3 kmh WNW 29.0 mph46.7 kmh 29.54 in1000.3 mb 0.00 in0.0 mm 0.00 in0.0 mm 0.02 in0.5 mm
01:38 AM 39.0°F3.9°C 35.2°F1.8°C 86% 13.0 mph WNW20.9 kmh WNW 29.0 mph46.7 kmh 29.53 in1000.0 mb 0.00 in0.0 mm 0.00 in0.0 mm 0.02 in0.5 mm
01:33 AM 38.8°F3.8°C 35.3°F1.8°C 87% 10.0 mph NW16.1 kmh NW 22.0 mph35.4 kmh 29.52 in999.7 mb 0.00 in0.0 mm 0.00 in0.0 mm 0.02 in0.5 mm
01:28 AM 38.8°F3.8°C 35.3°F1.8°C 87% 14.0 mph NW22.5 kmh NW 27.0 mph43.5 kmh 29.52 in999.7 mb 0.00 in0.0 mm 0.00 in0.0 mm 0.02 in0.5 mm
01:23 AM 38.7°F3.7°C 35.5°F1.9°C 88% 12.0 mph NW19.3 kmh NW 27.0 mph43.5 kmh 29.51 in999.3 mb 0.00 in0.0 mm 0.00 in0.0 mm 0.02 in0.5 mm
01:18 AM 38.7°F3.7°C 35.5°F1.9°C 88% 12.0 mph NW19.3 kmh NW 27.0 mph43.5 kmh 29.51 in999.3 mb 0.00 in0.0 mm 0.00 in0.0 mm 0.02 in0.5 mm
01:13 AM 38.6°F3.7°C 35.4°F1.9°C 88% 13.0 mph NW20.9 kmh NW 27.0 mph43.5 kmh 29.50 in999.0 mb 0.00 in0.0 mm 0.00 in0.0 mm 0.02 in0.5 mm
01:08 AM 38.6°F3.7°C 35.4°F1.9°C 88% 8.0 mph NW12.9 kmh NW 24.0 mph38.6 kmh 29.50 in999.0 mb 0.00 in0.0 mm 0.00 in0.0 mm 0.02 in0.5 mm
01:03 AM 38.5°F3.6°C 35.3°F1.8°C 88% 8.0 mph WNW12.9 kmh WNW 24.0 mph38.6 kmh 29.50 in999.0 mb 0.00 in0.0 mm 0.00 in0.0 mm 0.01 in0.3 mm
12:58 AM 38.5°F3.6°C 35.3°F1.8°C 88% 8.0 mph NW12.9 kmh NW 27.0 mph43.5 kmh 29.49 in998.6 mb 0.00 in0.0 mm 0.00 in0.0 mm 0.00 in0.0 mm
12:53 AM 38.4°F3.6°C 35.2°F1.8°C 88% 5.0 mph W8.0 kmh W 27.0 mph43.5 kmh 29.48 in998.3 mb 0.00 in0.0 mm 0.00 in0.0 mm 0.00 in0.0 mm
12:48 AM 38.4°F3.6°C 35.2°F1.8°C 88% 13.0 mph NW20.9 kmh NW 27.0 mph43.5 kmh 29.48 in998.3 mb 0.00 in0.0 mm 0.00 in0.0 mm 0.00 in0.0 mm
12:43 AM 38.4°F3.6°C 35.2°F1.8°C 88% 8.0 mph W12.9 kmh W 27.0 mph43.5 kmh 29.47 in998.0 mb 0.00 in0.0 mm 0.00 in0.0 mm 0.00 in0.0 mm
12:38 AM 38.3°F3.5°C 35.4°F1.9°C 89% 6.0 mph W9.7 kmh W 30.0 mph48.3 kmh 29.47 in998.0 mb 0.00 in0.0 mm 0.00 in0.0 mm 0.00 in0.0 mm
12:33 AM 38.2°F3.4°C 35.3°F1.8°C 89% 11.0 mph W17.7 kmh W 30.0 mph48.3 kmh 29.46 in997.6 mb 0.00 in0.0 mm 0.00 in0.0 mm 0.00 in0.0 mm
12:28 AM 38.1°F3.4°C 35.2°F1.8°C 89% 5.0 mph NW8.0 kmh NW 30.0 mph48.3 kmh 29.46 in997.6 mb 0.00 in0.0 mm 0.00 in0.0 mm 0.00 in0.0 mm
12:23 AM 38.1°F3.4°C 35.2°F1.8°C 89% 14.0 mph WSW22.5 kmh WSW 30.0 mph48.3 kmh 29.45 in997.3 mb 0.00 in0.0 mm 0.00 in0.0 mm 0.00 in0.0 mm
12:18 AM 38.0°F3.3°C 35.1°F1.7°C 89% 16.0 mph WNW25.7 kmh WNW 27.0 mph43.5 kmh 29.45 in997.3 mb 0.00 in0.0 mm 0.00 in0.0 mm 0.00 in0.0 mm
12:13 AM 38.0°F3.3°C 35.1°F1.7°C 89% 7.0 mph WNW11.3 kmh WNW 27.0 mph43.5 kmh 29.44 in997.0 mb 0.00 in0.0 mm 0.00 in0.0 mm 0.00 in0.0 mm
12:08 AM 37.9°F3.3°C 35.0°F1.7°C 89% 22.0 mph WNW35.4 kmh WNW 27.0 mph43.5 kmh 29.44 in997.0 mb 0.00 in0.0 mm 0.00 in0.0 mm 0.00 in0.0 mm
12:03 AM 37.7°F3.2°C 34.8°F1.6°C 89% 13.0 mph NNW20.9 kmh NNW 27.0 mph43.5 kmh 29.43 in996.6 mb 0.00 in0.0 mm 0.00 in0.0 mm 0.00 in0.0 mm